Karin S — V2BM6 — position and weather

sailwx.info

Track history (hours):
 
Tides and Currents Weather Stations Pressure Air Temp Water Temp Dewpoint Dewpoint Depression Visibility Wind Speed Wind Dir Waves Ship Positions

Karin S

Last reported at 2017-Apr-25 18:10 UTC. Time now 2017-Apr-28 18:08 UTC.
Position N 36°48' E 003°05'.

Length 141 m; draft 8.6 m.

Type: Cargo ship. MMSI: 304871000.

Date/timePositionNaut miles runAvg speedWind from/ knotsBaromVisibWave heightAir tempDewpointWater temp
2017-Apr-25 18:10N 36°48' E 003°05'0 0.0
2017-Apr-25 17:43N 36°48' E 003°05'0 0.0
2017-Apr-25 14:43N 36°48' E 003°05'0 0.0
2017-Apr-25 14:28N 36°48' E 003°05'0 0.0
2017-Apr-25 13:01N 36°48' E 003°05'0 0.1
2017-Apr-25 12:55N 36°48' E 003°05'0 0.0
2017-Apr-25 12:28N 36°48' E 003°05'0 0.0
2017-Apr-25 11:55N 36°48' E 003°05'0 0.0
2017-Apr-25 11:25N 36°48' E 003°05'0 0.0
2017-Apr-25 10:40N 36°48' E 003°05'0 0.0
2017-Apr-25 10:25N 36°48' E 003°05'17 2.2
2017-Apr-25 02:42N 37°05' E 003°01'212.4
2017-Apr-25 02:30N 37°07' E 002°59'612.1
2017-Apr-25 02:00N 37°13' E 002°58'612.5
2017-Apr-25 01:30N 37°19' E 002°57'612.5
2017-Apr-25 01:00N 37°25' E 002°55'1313.0
2017-Apr-24 23:59N 37°38' E 002°50'713.8
2017-Apr-24 23:29N 37°45' E 002°48'713.9
2017-Apr-24 23:00N 37°51' E 002°46'713.8
2017-Apr-24 22:30N 37°58' E 002°44'1313.6
2017-Apr-24 21:34N 38°10' E 002°39'113.4
2017-Apr-24 21:30N 38°11' E 002°39'713.3
2017-Apr-24 21:00N 38°17' E 002°37'713.2
2017-Apr-24 20:30N 38°24' E 002°35'713.1
2017-Apr-24 20:00N 38°30' E 002°33'612.8
2017-Apr-24 19:30N 38°36' E 002°30'612.7
2017-Apr-24 19:00N 38°42' E 002°28'612.7
2017-Apr-24 18:30N 38°49' E 002°26'612.8
2017-Apr-24 18:00N 38°55' E 002°24'612.8
2017-Apr-24 17:30N 39°01' E 002°22'713.0
2017-Apr-24 17:00N 39°07' E 002°20'1413.2
2017-Apr-24 15:59N 39°20' E 002°15'613.3
2017-Apr-24 15:30N 39°27' E 002°13'713.1
2017-Apr-24 14:58N 39°34' E 002°13'712.8
2017-Apr-24 14:27N 39°40' E 002°14'1212.7
2017-Apr-24 13:30N 39°52' E 002°14'612.5
2017-Apr-24 13:00N 39°58' E 002°14'612.4
2017-Apr-24 12:30N 40°05' E 002°14'612.5
2017-Apr-24 12:00N 40°11' E 002°14'612.5
2017-Apr-24 11:30N 40°17' E 002°13'612.8
2017-Apr-24 11:00N 40°23' E 002°13'612.8
2017-Apr-24 10:30N 40°30' E 002°13'612.8
2017-Apr-24 10:01N 40°36' E 002°13'4 8.6
2017-Apr-24 09:30N 40°41' E 002°13'0 0.2
2017-Apr-24 08:58N 40°41' E 002°13'0 0.3
2017-Apr-24 08:25N 40°41' E 002°12'0 0.5
2017-Apr-24 07:59N 40°41' E 002°12'0 0.6
2017-Apr-24 07:22N 40°41' E 002°12'1 1.0
2017-Apr-24 06:52N 40°40' E 002°11'2 6.8
2017-Apr-24 06:30N 40°43' E 002°11'612.1
2017-Apr-24 06:00N 40°49' E 002°11'612.6
2017-Apr-24 05:30N 40°55' E 002°11'712.8
2017-Apr-24 05:00N 41°02' E 002°12'612.5
2017-Apr-24 04:30N 41°08' E 002°12'612.3
2017-Apr-24 04:00N 41°14' E 002°11'510.5
2017-Apr-24 03:30N 41°19' E 002°10'1 2.0
2017-Apr-24 03:00N 41°19' E 002°09'0 0.0
2017-Apr-24 02:30N 41°19' E 002°09'0 0.0
2017-Apr-24 01:56N 41°19' E 002°09'0 0.0
2017-Apr-24 01:25N 41°19' E 002°09'0 0.0
2017-Apr-24 00:44N 41°19' E 002°09'0 0.0
2017-Apr-23 23:26N 41°19' E 002°09'0 0.0
2017-Apr-23 23:00N 41°19' E 002°09'0 0.0
2017-Apr-23 22:30N 41°19' E 002°09'0 0.0
2017-Apr-23 22:00N 41°19' E 002°09'0 0.0
2017-Apr-23 21:05N 41°19' E 002°09'0 0.0
2017-Apr-23 20:53N 41°19' E 002°09'0 0.0
2017-Apr-23 20:29N 41°19' E 002°09'0 0.0
2017-Apr-23 19:53N 41°19' E 002°09'0 0.0
2017-Apr-23 19:29N 41°19' E 002°09'0 0.0
2017-Apr-23 18:59N 41°19' E 002°09'0 0.0
2017-Apr-23 18:23N 41°19' E 002°09'0 0.0
2017-Apr-23 17:59N 41°19' E 002°09'0 0.0
2017-Apr-23 17:29N 41°19' E 002°09'0 0.1
2017-Apr-23 17:00N 41°19' E 002°09'2 4.1
2017-Apr-23 16:29N 41°17' E 002°11'3 6.6
2017-Apr-23 16:00N 41°18' E 002°15'2311.5
2017-Apr-23 14:00N 41°28' E 002°43'1212.1
2017-Apr-23 13:01N 41°33' E 002°57'112.3
2017-Apr-23 12:58N 41°34' E 002°58'912.3
2017-Apr-23 12:12N 41°39' E 003°08'312.5
2017-Apr-23 11:56N 41°40' E 003°12'3612.5
2017-Apr-23 09:03N 41°58' E 003°55'111.5
2017-Apr-23 09:00N 41°58' E 003°55'611.4
2017-Apr-23 08:30N 42°02' E 004°01'612.2
2017-Apr-23 07:59N 42°07' E 004°06'611.7
2017-Apr-23 07:30N 42°12' E 004°10'611.7
2017-Apr-23 07:00N 42°17' E 004°14'612.0
2017-Apr-23 06:30N 42°22' E 004°18'712.0
2017-Apr-23 05:57N 42°27' E 004°23'712.1
2017-Apr-23 05:25N 42°33' E 004°28'1612.0
2017-Apr-23 04:05N 42°47' E 004°39'2411.9
2017-Apr-23 02:06N 43°07' E 004°55'212.0
2017-Apr-23 01:58N 43°08' E 004°57'710.9
2017-Apr-23 01:19N 43°15' E 004°60'411.9
2017-Apr-23 01:00N 43°19' E 004°59'5 9.7
2017-Apr-23 00:30N 43°23' E 004°57'5 2.1
2017-Apr-22 22:06N 43°25' E 004°50'0 0.0
2017-Apr-22 16:19N 43°25' E 004°50'3 6.0
2017-Apr-22 15:53N 43°24' E 004°54'410.9
2017-Apr-22 15:30N 43°21' E 004°58'4 8.4
2017-Apr-22 15:00N 43°17' E 005°00'711.0
2017-Apr-22 14:20N 43°10' E 005°03'4 0.9
2017-Apr-22 10:08N 43°07' E 004°60'17 2.1
2017-Apr-22 02:09N 42°57' E 005°18'63 9.6
2017-Apr-21 19:32N 42°56' E 006°45'1 9.9
2017-Apr-21 19:29N 42°56' E 006°46'5 9.6
2017-Apr-21 19:00N 42°58' E 006°51'5 9.8
2017-Apr-21 18:29N 43°00' E 006°58'6 9.7
2017-Apr-21 17:50N 43°03' E 007°06'3 9.9
2017-Apr-21 17:30N 43°04' E 007°10'610.1
2017-Apr-21 16:57N 43°06' E 007°17'510.0
2017-Apr-21 16:27N 43°08' E 007°23'410.0
2017-Apr-21 16:00N 43°10' E 007°29'510.1
2017-Apr-21 15:30N 43°12' E 007°35'510.1
2017-Apr-21 15:00N 43°14' E 007°41'510.1
2017-Apr-21 14:30N 43°16' E 007°48'1312.0
2017-Apr-21 13:27N 43°21' E 008°04'1610.4
2017-Apr-21 11:57N 43°28' E 008°23'510.7
2017-Apr-21 11:30N 43°30' E 008°29'510.6
2017-Apr-21 11:00N 43°33' E 008°35'510.7
2017-Apr-21 10:30N 43°35' E 008°42'510.7
2017-Apr-21 10:00N 43°38' E 008°48'510.7
2017-Apr-21 09:30N 43°40' E 008°55'611.2
2017-Apr-21 09:00N 43°43' E 009°02'611.9
2017-Apr-21 08:30N 43°45' E 009°09'612.1
2017-Apr-21 08:00N 43°48' E 009°17'611.9
2017-Apr-21 07:30N 43°51' E 009°24'612.0
2017-Apr-21 07:00N 43°54' E 009°31'612.3
2017-Apr-21 06:30N 43°56' E 009°39'612.1
2017-Apr-21 06:00N 43°59' E 009°46'5 9.6
2017-Apr-21 05:30N 44°02' E 009°52'5 9.8
2017-Apr-21 05:00N 44°06' E 009°51'0 0.3
2017-Apr-21 04:30N 44°07' E 009°50'0 0.0
2017-Apr-21 03:54N 44°07' E 009°50'0 0.0
2017-Apr-21 03:30N 44°07' E 009°50'0 0.0
2017-Apr-21 02:57N 44°07' E 009°50'0 0.0
2017-Apr-21 02:21N 44°07' E 009°50'0 0.0
2017-Apr-21 02:00N 44°07' E 009°50'0 0.0
2017-Apr-21 01:30N 44°07' E 009°50'0 0.0
2017-Apr-21 01:00N 44°07' E 009°50'0 0.0
2017-Apr-21 00:30N 44°07' E 009°50'0 0.0
2017-Apr-21 00:00N 44°07' E 009°50'0 0.0
2017-Apr-20 23:30N 44°07' E 009°50'0 0.0
2017-Apr-20 23:00N 44°07' E 009°50'0 0.0
2017-Apr-20 22:29N 44°07' E 009°50'0 0.0
2017-Apr-20 21:59N 44°07' E 009°50'0 0.0
2017-Apr-20 21:29N 44°07' E 009°50'0 0.0
2017-Apr-20 21:00N 44°07' E 009°50'0 0.0
2017-Apr-20 20:31N 44°07' E 009°50'0 0.0
2017-Apr-20 20:00N 44°07' E 009°50'0 0.0
2017-Apr-20 19:30N 44°07' E 009°50'0 0.0
2017-Apr-20 19:00N 44°07' E 009°50'0 0.0
2017-Apr-20 18:30N 44°07' E 009°50'0 0.0
2017-Apr-20 18:00N 44°07' E 009°50'0 0.0
2017-Apr-20 17:31N 44°07' E 009°50'0 0.0
2017-Apr-20 17:00N 44°07' E 009°50'0 0.0
2017-Apr-20 16:30N 44°07' E 009°50'0 0.0
2017-Apr-20 15:59N 44°07' E 009°50'0 0.0
2017-Apr-20 15:29N 44°07' E 009°50'0 0.0
2017-Apr-20 14:55N 44°07' E 009°50'0 0.0
2017-Apr-20 14:29N 44°07' E 009°50'0 0.0
2017-Apr-20 13:29N 44°07' E 009°50'0 0.0
2017-Apr-20 12:59N 44°07' E 009°50'0 0.0
2017-Apr-20 12:29N 44°07' E 009°50'0 0.0
2017-Apr-20 11:56N 44°07' E 009°50'0 0.0
2017-Apr-20 11:29N 44°07' E 009°50'0 0.0
2017-Apr-20 10:59N 44°07' E 009°50'0 0.0
2017-Apr-20 10:30N 44°07' E 009°50'0 0.0
2017-Apr-20 10:00N 44°07' E 009°50'0 0.0
2017-Apr-20 09:30N 44°07' E 009°50'0 0.0
2017-Apr-20 09:00N 44°07' E 009°50'0 0.0
2017-Apr-20 08:30N 44°07' E 009°50'0 0.0
2017-Apr-20 08:00N 44°07' E 009°50'0 0.0
2017-Apr-20 07:30N 44°07' E 009°50'0 0.0
2017-Apr-20 07:00N 44°07' E 009°50'0 0.0
2017-Apr-20 06:30N 44°07' E 009°50'0 0.0
2017-Apr-20 06:00N 44°07' E 009°50'0 0.0
2017-Apr-20 05:29N 44°07' E 009°50'1 2.7
2017-Apr-20 05:00N 44°05' E 009°51'4 7.6
2017-Apr-20 04:31N 44°02' E 009°54'0 0.6
2017-Apr-20 04:00N 44°02' E 009°54'0 0.1
2017-Apr-20 03:25N 44°02' E 009°54'0 0.0
2017-Apr-20 02:58N 44°02' E 009°54'0 0.0
2017-Apr-20 02:28N 44°02' E 009°54'0 0.0
2017-Apr-20 01:58N 44°02' E 009°54'0 0.1
2017-Apr-20 01:28N 44°02' E 009°54'0 0.2
2017-Apr-20 00:52N 44°02' E 009°54'0 0.0
2017-Apr-20 00:28N 44°02' E 009°54'0 0.0
2017-Apr-20 00:01N 44°02' E 009°54'0 0.1
2017-Apr-19 23:31N 44°02' E 009°54'0 0.1
2017-Apr-19 23:00N 44°02' E 009°54'0 0.0
2017-Apr-19 22:30N 44°02' E 009°54'0 0.0
2017-Apr-19 22:00N 44°02' E 009°54'0 0.0
2017-Apr-19 21:28N 44°02' E 009°54'0 0.0
2017-Apr-19 21:00N 44°02' E 009°54'0 0.0
2017-Apr-19 20:30N 44°02' E 009°54'0 0.0
2017-Apr-19 20:00N 44°02' E 009°54'0 0.0
2017-Apr-19 19:30N 44°02' E 009°54'0 0.0
2017-Apr-19 19:00N 44°02' E 009°54'0 0.0
2017-Apr-19 18:30N 44°02' E 009°54'0 0.0
2017-Apr-19 18:00N 44°02' E 009°54'0 0.0
2017-Apr-19 17:30N 44°02' E 009°54'0 0.1
2017-Apr-19 17:00N 44°02' E 009°54'0 0.0
2017-Apr-19 16:30N 44°02' E 009°54'0 0.2
2017-Apr-19 15:59N 44°02' E 009°54'0 0.0
2017-Apr-19 15:30N 44°02' E 009°54'0 0.0
2017-Apr-19 15:00N 44°02' E 009°54'0 0.1
2017-Apr-19 14:30N 44°02' E 009°54'0 0.1
2017-Apr-19 13:30N 44°02' E 009°54'0 0.3
2017-Apr-19 13:01N 44°02' E 009°54'1 2.6
2017-Apr-19 12:30N 44°01' E 009°54'3 5.5
2017-Apr-19 12:00N 43°58' E 009°54'3 5.5
2017-Apr-19 11:30N 43°56' E 009°53'3 5.5
2017-Apr-19 11:00N 43°53' E 009°51'3 5.8
2017-Apr-19 10:30N 43°51' E 009°49'3 5.7
2017-Apr-19 10:00N 43°49' E 009°46'3 5.4
2017-Apr-19 09:31N 43°47' E 009°44'3 5.1
2017-Apr-19 09:01N 43°45' E 009°42'3 5.4
2017-Apr-19 08:30N 43°42' E 009°39'2 4.9
2017-Apr-19 08:01N 43°41' E 009°38'2 4.5
2017-Apr-19 07:30N 43°39' E 009°36'2 4.2
2017-Apr-19 07:00N 43°37' E 009°34'2 4.3
2017-Apr-19 06:30N 43°35' E 009°32'2 4.3
2017-Apr-19 06:00N 43°33' E 009°31'2 4.7
2017-Apr-19 05:30N 43°31' E 009°29'2 4.9
2017-Apr-19 05:00N 43°29' E 009°27'2 4.8
2017-Apr-19 04:30N 43°27' E 009°26'2 4.4
2017-Apr-19 04:00N 43°25' E 009°24'2 3.7
2017-Apr-19 03:30N 43°24' E 009°23'2 3.7
2017-Apr-19 03:01N 43°23' E 009°21'2 3.7
2017-Apr-19 02:31N 43°21' E 009°19'2 3.5
2017-Apr-19 02:01N 43°20' E 009°18'2 3.5
2017-Apr-19 01:30N 43°18' E 009°16'2 3.3
2017-Apr-19 01:00N 43°17' E 009°15'1 2.9
2017-Apr-19 00:31N 43°16' E 009°13'2 4.1
2017-Apr-19 00:00N 43°14' E 009°12'2 4.7
2017-Apr-18 23:30N 43°12' E 009°10'2 5.0
2017-Apr-18 23:00N 43°10' E 009°09'2 4.5
2017-Apr-18 22:29N 43°08' E 009°07'2 4.2
2017-Apr-18 22:00N 43°10' E 009°08'611.8
2017-Apr-18 21:29N 43°16' E 009°11'4 7.7
2017-Apr-18 21:00N 43°19' E 009°12'2 3.1
2017-Apr-18 20:30N 43°18' E 009°10'2 3.4
2017-Apr-18 20:00N 43°17' E 009°09'2 3.8
2017-Apr-18 19:30N 43°15' E 009°07'1 2.4
2017-Apr-18 19:00N 43°14' E 009°06'1 2.5
2017-Apr-18 18:30N 43°14' E 009°05'2 3.8
2017-Apr-18 18:00N 43°12' E 009°03'2 3.3
2017-Apr-18 17:30N 43°11' E 009°02'3 5.2
2017-Apr-18 16:53N 43°08' E 008°59'  
Track history (hours):
 
Tides and Currents Weather Stations Pressure Air Temp Water Temp Dewpoint Dewpoint Depression Visibility Wind Speed Wind Dir Waves Ship Positions

Karin S

Last reported at 2017-Apr-25 18:10 UTC. Time now 2017-Apr-28 18:08 UTC.
Position N 36°48' E 003°05'.

Length 141 m; draft 8.6 m.

Type: Cargo ship. MMSI: 304871000.

Date/timePositionNaut miles runAvg speedWind from/ knotsBaromVisibWave heightAir tempDewpointWater temp
2017-Apr-25 18:10N 36°48' E 003°05'0 0.0
2017-Apr-25 17:43N 36°48' E 003°05'0 0.0
2017-Apr-25 14:43N 36°48' E 003°05'0 0.0
2017-Apr-25 14:28N 36°48' E 003°05'0 0.0
2017-Apr-25 13:01N 36°48' E 003°05'0 0.1
2017-Apr-25 12:55N 36°48' E 003°05'0 0.0
2017-Apr-25 12:28N 36°48' E 003°05'0 0.0
2017-Apr-25 11:55N 36°48' E 003°05'0 0.0
2017-Apr-25 11:25N 36°48' E 003°05'0 0.0
2017-Apr-25 10:40N 36°48' E 003°05'0 0.0
2017-Apr-25 10:25N 36°48' E 003°05'17 2.2
2017-Apr-25 02:42N 37°05' E 003°01'212.4
2017-Apr-25 02:30N 37°07' E 002°59'612.1
2017-Apr-25 02:00N 37°13' E 002°58'612.5
2017-Apr-25 01:30N 37°19' E 002°57'612.5
2017-Apr-25 01:00N 37°25' E 002°55'1313.0
2017-Apr-24 23:59N 37°38' E 002°50'713.8
2017-Apr-24 23:29N 37°45' E 002°48'713.9
2017-Apr-24 23:00N 37°51' E 002°46'713.8
2017-Apr-24 22:30N 37°58' E 002°44'1313.6
2017-Apr-24 21:34N 38°10' E 002°39'113.4
2017-Apr-24 21:30N 38°11' E 002°39'713.3
2017-Apr-24 21:00N 38°17' E 002°37'713.2
2017-Apr-24 20:30N 38°24' E 002°35'713.1
2017-Apr-24 20:00N 38°30' E 002°33'612.8
2017-Apr-24 19:30N 38°36' E 002°30'612.7
2017-Apr-24 19:00N 38°42' E 002°28'612.7
2017-Apr-24 18:30N 38°49' E 002°26'612.8
2017-Apr-24 18:00N 38°55' E 002°24'612.8
2017-Apr-24 17:30N 39°01' E 002°22'713.0
2017-Apr-24 17:00N 39°07' E 002°20'1413.2
2017-Apr-24 15:59N 39°20' E 002°15'613.3
2017-Apr-24 15:30N 39°27' E 002°13'713.1
2017-Apr-24 14:58N 39°34' E 002°13'712.8
2017-Apr-24 14:27N 39°40' E 002°14'1212.7
2017-Apr-24 13:30N 39°52' E 002°14'612.5
2017-Apr-24 13:00N 39°58' E 002°14'612.4
2017-Apr-24 12:30N 40°05' E 002°14'612.5
2017-Apr-24 12:00N 40°11' E 002°14'612.5
2017-Apr-24 11:30N 40°17' E 002°13'612.8
2017-Apr-24 11:00N 40°23' E 002°13'612.8
2017-Apr-24 10:30N 40°30' E 002°13'612.8
2017-Apr-24 10:01N 40°36' E 002°13'4 8.6
2017-Apr-24 09:30N 40°41' E 002°13'0 0.2
2017-Apr-24 08:58N 40°41' E 002°13'0 0.3
2017-Apr-24 08:25N 40°41' E 002°12'0 0.5
2017-Apr-24 07:59N 40°41' E 002°12'0 0.6
2017-Apr-24 07:22N 40°41' E 002°12'1 1.0
2017-Apr-24 06:52N 40°40' E 002°11'2 6.8
2017-Apr-24 06:30N 40°43' E 002°11'612.1
2017-Apr-24 06:00N 40°49' E 002°11'612.6
2017-Apr-24 05:30N 40°55' E 002°11'712.8
2017-Apr-24 05:00N 41°02' E 002°12'612.5
2017-Apr-24 04:30N 41°08' E 002°12'612.3
2017-Apr-24 04:00N 41°14' E 002°11'510.5
2017-Apr-24 03:30N 41°19' E 002°10'1 2.0
2017-Apr-24 03:00N 41°19' E 002°09'0 0.0
2017-Apr-24 02:30N 41°19' E 002°09'0 0.0
2017-Apr-24 01:56N 41°19' E 002°09'0 0.0
2017-Apr-24 01:25N 41°19' E 002°09'0 0.0
2017-Apr-24 00:44N 41°19' E 002°09'0 0.0
2017-Apr-23 23:26N 41°19' E 002°09'0 0.0
2017-Apr-23 23:00N 41°19' E 002°09'0 0.0
2017-Apr-23 22:30N 41°19' E 002°09'0 0.0
2017-Apr-23 22:00N 41°19' E 002°09'0 0.0
2017-Apr-23 21:05N 41°19' E 002°09'0 0.0
2017-Apr-23 20:53N 41°19' E 002°09'0 0.0
2017-Apr-23 20:29N 41°19' E 002°09'0 0.0
2017-Apr-23 19:53N 41°19' E 002°09'0 0.0
2017-Apr-23 19:29N 41°19' E 002°09'0 0.0
2017-Apr-23 18:59N 41°19' E 002°09'0 0.0
2017-Apr-23 18:23N 41°19' E 002°09'0 0.0
2017-Apr-23 17:59N 41°19' E 002°09'0 0.0
2017-Apr-23 17:29N 41°19' E 002°09'0 0.1
2017-Apr-23 17:00N 41°19' E 002°09'2 4.1
2017-Apr-23 16:29N 41°17' E 002°11'3 6.6
2017-Apr-23 16:00N 41°18' E 002°15'2311.5
2017-Apr-23 14:00N 41°28' E 002°43'1212.1
2017-Apr-23 13:01N 41°33' E 002°57'112.3
2017-Apr-23 12:58N 41°34' E 002°58'912.3
2017-Apr-23 12:12N 41°39' E 003°08'312.5
2017-Apr-23 11:56N 41°40' E 003°12'3612.5
2017-Apr-23 09:03N 41°58' E 003°55'111.5
2017-Apr-23 09:00N 41°58' E 003°55'611.4
2017-Apr-23 08:30N 42°02' E 004°01'612.2
2017-Apr-23 07:59N 42°07' E 004°06'611.7
2017-Apr-23 07:30N 42°12' E 004°10'611.7
2017-Apr-23 07:00N 42°17' E 004°14'612.0
2017-Apr-23 06:30N 42°22' E 004°18'712.0
2017-Apr-23 05:57N 42°27' E 004°23'712.1
2017-Apr-23 05:25N 42°33' E 004°28'1612.0
2017-Apr-23 04:05N 42°47' E 004°39'2411.9
2017-Apr-23 02:06N 43°07' E 004°55'212.0
2017-Apr-23 01:58N 43°08' E 004°57'710.9
2017-Apr-23 01:19N 43°15' E 004°60'411.9
2017-Apr-23 01:00N 43°19' E 004°59'5 9.7
2017-Apr-23 00:30N 43°23' E 004°57'5 2.1
2017-Apr-22 22:06N 43°25' E 004°50'0 0.0
2017-Apr-22 16:19N 43°25' E 004°50'3 6.0
2017-Apr-22 15:53N 43°24' E 004°54'410.9
2017-Apr-22 15:30N 43°21' E 004°58'4 8.4
2017-Apr-22 15:00N 43°17' E 005°00'711.0
2017-Apr-22 14:20N 43°10' E 005°03'4 0.9
2017-Apr-22 10:08N 43°07' E 004°60'17 2.1
2017-Apr-22 02:09N 42°57' E 005°18'63 9.6
2017-Apr-21 19:32N 42°56' E 006°45'1 9.9
2017-Apr-21 19:29N 42°56' E 006°46'5 9.6
2017-Apr-21 19:00N 42°58' E 006°51'5 9.8
2017-Apr-21 18:29N 43°00' E 006°58'6 9.7
2017-Apr-21 17:50N 43°03' E 007°06'3 9.9
2017-Apr-21 17:30N 43°04' E 007°10'610.1
2017-Apr-21 16:57N 43°06' E 007°17'510.0
2017-Apr-21 16:27N 43°08' E 007°23'410.0
2017-Apr-21 16:00N 43°10' E 007°29'510.1
2017-Apr-21 15:30N 43°12' E 007°35'510.1
2017-Apr-21 15:00N 43°14' E 007°41'510.1
2017-Apr-21 14:30N 43°16' E 007°48'1312.0
2017-Apr-21 13:27N 43°21' E 008°04'1610.4
2017-Apr-21 11:57N 43°28' E 008°23'510.7
2017-Apr-21 11:30N 43°30' E 008°29'510.6
2017-Apr-21 11:00N 43°33' E 008°35'510.7
2017-Apr-21 10:30N 43°35' E 008°42'510.7
2017-Apr-21 10:00N 43°38' E 008°48'510.7
2017-Apr-21 09:30N 43°40' E 008°55'611.2
2017-Apr-21 09:00N 43°43' E 009°02'611.9
2017-Apr-21 08:30N 43°45' E 009°09'612.1
2017-Apr-21 08:00N 43°48' E 009°17'611.9
2017-Apr-21 07:30N 43°51' E 009°24'612.0
2017-Apr-21 07:00N 43°54' E 009°31'612.3
2017-Apr-21 06:30N 43°56' E 009°39'612.1
2017-Apr-21 06:00N 43°59' E 009°46'5 9.6
2017-Apr-21 05:30N 44°02' E 009°52'5 9.8
2017-Apr-21 05:00N 44°06' E 009°51'0 0.3
2017-Apr-21 04:30N 44°07' E 009°50'0 0.0
2017-Apr-21 03:54N 44°07' E 009°50'0 0.0
2017-Apr-21 03:30N 44°07' E 009°50'0 0.0
2017-Apr-21 02:57N 44°07' E 009°50'0 0.0
2017-Apr-21 02:21N 44°07' E 009°50'0 0.0
2017-Apr-21 02:00N 44°07' E 009°50'0 0.0
2017-Apr-21 01:30N 44°07' E 009°50'0 0.0
2017-Apr-21 01:00N 44°07' E 009°50'0 0.0
2017-Apr-21 00:30N 44°07' E 009°50'0 0.0
2017-Apr-21 00:00N 44°07' E 009°50'0 0.0
2017-Apr-20 23:30N 44°07' E 009°50'0 0.0
2017-Apr-20 23:00N 44°07' E 009°50'0 0.0
2017-Apr-20 22:29N 44°07' E 009°50'0 0.0
2017-Apr-20 21:59N 44°07' E 009°50'0 0.0
2017-Apr-20 21:29N 44°07' E 009°50'0 0.0
2017-Apr-20 21:00N 44°07' E 009°50'0 0.0
2017-Apr-20 20:31N 44°07' E 009°50'0 0.0
2017-Apr-20 20:00N 44°07' E 009°50'0 0.0
2017-Apr-20 19:30N 44°07' E 009°50'0 0.0
2017-Apr-20 19:00N 44°07' E 009°50'0 0.0
2017-Apr-20 18:30N 44°07' E 009°50'0 0.0
2017-Apr-20 18:00N 44°07' E 009°50'0 0.0
2017-Apr-20 17:31N 44°07' E 009°50'0 0.0
2017-Apr-20 17:00N 44°07' E 009°50'0 0.0
2017-Apr-20 16:30N 44°07' E 009°50'0 0.0
2017-Apr-20 15:59N 44°07' E 009°50'0 0.0
2017-Apr-20 15:29N 44°07' E 009°50'0 0.0
2017-Apr-20 14:55N 44°07' E 009°50'0 0.0
2017-Apr-20 14:29N 44°07' E 009°50'0 0.0
2017-Apr-20 13:29N 44°07' E 009°50'0 0.0
2017-Apr-20 12:59N 44°07' E 009°50'0 0.0
2017-Apr-20 12:29N 44°07' E 009°50'0 0.0
2017-Apr-20 11:56N 44°07' E 009°50'0 0.0
2017-Apr-20 11:29N 44°07' E 009°50'0 0.0
2017-Apr-20 10:59N 44°07' E 009°50'0 0.0
2017-Apr-20 10:30N 44°07' E 009°50'0 0.0
2017-Apr-20 10:00N 44°07' E 009°50'0 0.0
2017-Apr-20 09:30N 44°07' E 009°50'0 0.0
2017-Apr-20 09:00N 44°07' E 009°50'0 0.0
2017-Apr-20 08:30N 44°07' E 009°50'0 0.0
2017-Apr-20 08:00N 44°07' E 009°50'0 0.0
2017-Apr-20 07:30N 44°07' E 009°50'0 0.0
2017-Apr-20 07:00N 44°07' E 009°50'0 0.0
2017-Apr-20 06:30N 44°07' E 009°50'0 0.0
2017-Apr-20 06:00N 44°07' E 009°50'0 0.0
2017-Apr-20 05:29N 44°07' E 009°50'1 2.7
2017-Apr-20 05:00N 44°05' E 009°51'4 7.6
2017-Apr-20 04:31N 44°02' E 009°54'0 0.6
2017-Apr-20 04:00N 44°02' E 009°54'0 0.1
2017-Apr-20 03:25N 44°02' E 009°54'0 0.0
2017-Apr-20 02:58N 44°02' E 009°54'0 0.0
2017-Apr-20 02:28N 44°02' E 009°54'0 0.0
2017-Apr-20 01:58N 44°02' E 009°54'0 0.1
2017-Apr-20 01:28N 44°02' E 009°54'0 0.2
2017-Apr-20 00:52N 44°02' E 009°54'0 0.0
2017-Apr-20 00:28N 44°02' E 009°54'0 0.0
2017-Apr-20 00:01N 44°02' E 009°54'0 0.1
2017-Apr-19 23:31N 44°02' E 009°54'0 0.1
2017-Apr-19 23:00N 44°02' E 009°54'0 0.0
2017-Apr-19 22:30N 44°02' E 009°54'0 0.0
2017-Apr-19 22:00N 44°02' E 009°54'0 0.0
2017-Apr-19 21:28N 44°02' E 009°54'0 0.0
2017-Apr-19 21:00N 44°02' E 009°54'0 0.0
2017-Apr-19 20:30N 44°02' E 009°54'0 0.0
2017-Apr-19 20:00N 44°02' E 009°54'0 0.0
2017-Apr-19 19:30N 44°02' E 009°54'0 0.0
2017-Apr-19 19:00N 44°02' E 009°54'0 0.0
2017-Apr-19 18:30N 44°02' E 009°54'0 0.0
2017-Apr-19 18:00N 44°02' E 009°54'0 0.0
2017-Apr-19 17:30N 44°02' E 009°54'0 0.1
2017-Apr-19 17:00N 44°02' E 009°54'0 0.0
2017-Apr-19 16:30N 44°02' E 009°54'0 0.2
2017-Apr-19 15:59N 44°02' E 009°54'0 0.0
2017-Apr-19 15:30N 44°02' E 009°54'0 0.0
2017-Apr-19 15:00N 44°02' E 009°54'0 0.1
2017-Apr-19 14:30N 44°02' E 009°54'0 0.1
2017-Apr-19 13:30N 44°02' E 009°54'0 0.3
2017-Apr-19 13:01N 44°02' E 009°54'1 2.6
2017-Apr-19 12:30N 44°01' E 009°54'3 5.5
2017-Apr-19 12:00N 43°58' E 009°54'3 5.5
2017-Apr-19 11:30N 43°56' E 009°53'3 5.5
2017-Apr-19 11:00N 43°53' E 009°51'3 5.8
2017-Apr-19 10:30N 43°51' E 009°49'3 5.7
2017-Apr-19 10:00N 43°49' E 009°46'3 5.4
2017-Apr-19 09:31N 43°47' E 009°44'3 5.1
2017-Apr-19 09:01N 43°45' E 009°42'3 5.4
2017-Apr-19 08:30N 43°42' E 009°39'2 4.9
2017-Apr-19 08:01N 43°41' E 009°38'2 4.5
2017-Apr-19 07:30N 43°39' E 009°36'2 4.2
2017-Apr-19 07:00N 43°37' E 009°34'2 4.3
2017-Apr-19 06:30N 43°35' E 009°32'2 4.3
2017-Apr-19 06:00N 43°33' E 009°31'2 4.7
2017-Apr-19 05:30N 43°31' E 009°29'2 4.9
2017-Apr-19 05:00N 43°29' E 009°27'2 4.8
2017-Apr-19 04:30N 43°27' E 009°26'2 4.4
2017-Apr-19 04:00N 43°25' E 009°24'2 3.7
2017-Apr-19 03:30N 43°24' E 009°23'2 3.7
2017-Apr-19 03:01N 43°23' E 009°21'2 3.7
2017-Apr-19 02:31N 43°21' E 009°19'2 3.5
2017-Apr-19 02:01N 43°20' E 009°18'2 3.5
2017-Apr-19 01:30N 43°18' E 009°16'2 3.3
2017-Apr-19 01:00N 43°17' E 009°15'1 2.9
2017-Apr-19 00:31N 43°16' E 009°13'2 4.1
2017-Apr-19 00:00N 43°14' E 009°12'2 4.7
2017-Apr-18 23:30N 43°12' E 009°10'2 5.0
2017-Apr-18 23:00N 43°10' E 009°09'2 4.5
2017-Apr-18 22:29N 43°08' E 009°07'2 4.2
2017-Apr-18 22:00N 43°10' E 009°08'611.8
2017-Apr-18 21:29N 43°16' E 009°11'4 7.7
2017-Apr-18 21:00N 43°19' E 009°12'2 3.1
2017-Apr-18 20:30N 43°18' E 009°10'2 3.4
2017-Apr-18 20:00N 43°17' E 009°09'2 3.8
2017-Apr-18 19:30N 43°15' E 009°07'1 2.4
2017-Apr-18 19:00N 43°14' E 009°06'1 2.5
2017-Apr-18 18:30N 43°14' E 009°05'2 3.8
2017-Apr-18 18:00N 43°12' E 009°03'2 3.3
2017-Apr-18 17:30N 43°11' E 009°02'3 5.2
2017-Apr-18 16:53N 43°08' E 008°59'  

Dump ship's entire track history